Time;durP1;ratioP1;P1;durP2;ratioP2;P2;SDS_P1;SDS_P2;PMS_P1;PMS_P2;Temp;Humidity;BMP_temperature;BMP_pressure;BME280_temperature;BME280_humidity;BME280_pressure;Samples;Min_cycle;Max_cycle;Signal;HPM_P1;HPM_P2
2023/06/30 00:00:17;;;;;;;11.23;3.60;;;15.40;99.90;;;;;;5067290;28;20114;-75
2023/06/30 00:02:44;;;;;;;11.63;3.40;;;15.40;99.90;;;;;;5102852;28;20028;-75
2023/06/30 00:05:10;;;;;;;14.13;3.17;;;15.40;99.90;;;;;;5085882;28;20043;-75
2023/06/30 00:07:37;;;;;;;11.20;3.50;;;15.30;99.90;;;;;;5085981;28;20016;-75
2023/06/30 00:10:03;;;;;;;12.15;4.00;;;15.30;99.90;;;;;;5102752;28;20024;-75
2023/06/30 00:12:29;;;;;;;13.75;3.17;;;15.30;99.90;;;;;;5085737;28;20032;-75
2023/06/30 00:14:55;;;;;;;11.45;3.28;;;15.20;99.90;;;;;;5065885;28;20082;-75
2023/06/30 00:17:20;;;;;;;11.82;3.33;;;15.20;99.90;;;;;;5085227;28;20036;-75
2023/06/30 00:19:50;;;;;;;11.07;3.05;;;15.20;99.90;;;;;;5096271;28;20024;-75
2023/06/30 00:22:19;;;;;;;12.43;3.38;;;15.20;99.90;;;;;;5102405;28;20032;-75
2023/06/30 00:24:47;;;;;;;10.80;3.42;;;15.20;99.90;;;;;;5102416;28;20097;-75
2023/06/30 00:27:12;;;;;;;15.25;3.50;;;15.10;99.90;;;;;;5102121;28;20146;-76
2023/06/30 00:29:38;;;;;;;11.77;3.67;;;15.10;99.90;;;;;;5065435;28;20033;-76
2023/06/30 00:32:04;;;;;;;13.45;4.10;;;15.10;99.90;;;;;;5002949;28;20034;-75
2023/06/30 00:34:30;;;;;;;18.95;4.20;;;15.10;99.90;;;;;;5003143;28;20034;-75
2023/06/30 00:36:56;;;;;;;11.13;4.03;;;15.00;99.90;;;;;;5002883;28;20053;-75
2023/06/30 00:39:22;;;;;;;15.15;4.18;;;15.00;99.90;;;;;;5003135;28;20259;-75
2023/06/30 00:41:47;;;;;;;13.18;3.90;;;15.00;99.90;;;;;;5019199;28;20033;-75
2023/06/30 00:44:13;;;;;;;12.35;3.67;;;14.90;99.90;;;;;;5003126;28;20101;-75
2023/06/30 00:46:39;;;;;;;14.00;4.15;;;14.90;99.90;;;;;;5002624;28;20064;-75
2023/06/30 00:49:05;;;;;;;13.13;3.78;;;14.90;99.90;;;;;;5002393;28;20022;-75
2023/06/30 00:51:32;;;;;;;11.00;3.63;;;14.90;99.90;;;;;;5002672;28;20085;-75
2023/06/30 00:53:57;;;;;;;13.32;4.07;;;14.80;99.90;;;;;;5002828;28;20030;-75
2023/06/30 00:56:23;;;;;;;12.60;4.03;;;14.80;99.90;;;;;;5002597;28;20078;-75
2023/06/30 00:58:49;;;;;;;13.38;4.70;;;14.80;99.90;;;;;;5002671;28;20025;-76
2023/06/30 01:01:33;;;;;;;12.73;4.63;;;14.80;99.90;;;;;;5002746;28;20264;-75
2023/06/30 01:04:08;;;;;;;12.23;4.07;;;14.70;99.90;;;;;;5019055;28;20068;-75
2023/06/30 01:06:45;;;;;;;12.20;4.47;;;14.70;99.90;;;;;;5002521;28;20049;-75
2023/06/30 01:09:16;;;;;;;12.35;4.63;;;14.70;99.90;;;;;;5003023;28;20026;-75
2023/06/30 01:11:43;;;;;;;11.25;3.88;;;14.70;99.90;;;;;;5018838;28;20110;-75
2023/06/30 01:14:11;;;;;;;13.27;3.80;;;14.60;99.90;;;;;;5002549;28;20038;-75
2023/06/30 01:16:39;;;;;;;9.98;3.75;;;14.60;99.90;;;;;;5018668;28;20060;-75
2023/06/30 01:19:18;;;;;;;10.18;3.65;;;14.60;99.90;;;;;;5002699;28;20022;-75
2023/06/30 01:21:46;;;;;;;11.73;3.65;;;14.60;99.90;;;;;;5018567;28;20033;-75
2023/06/30 01:24:16;;;;;;;13.23;3.47;;;14.50;99.90;;;;;;5003212;28;20034;-75
2023/06/30 01:26:42;;;;;;;10.40;3.58;;;14.50;99.90;;;;;;5018342;28;20120;-76
2023/06/30 01:29:10;;;;;;;13.13;3.30;;;14.50;99.90;;;;;;5002388;28;20037;-76
2023/06/30 01:31:36;;;;;;;11.18;3.40;;;14.50;99.90;;;;;;5019472;28;20026;-76
2023/06/30 01:34:02;;;;;;;13.98;3.75;;;14.50;99.90;;;;;;4987929;28;20034;-75
2023/06/30 01:36:28;;;;;;;12.55;3.83;;;14.40;99.90;;;;;;4997140;28;20033;-75
2023/06/30 01:38:54;;;;;;;10.07;3.10;;;14.40;99.90;;;;;;5018560;28;20036;-75
2023/06/30 01:41:21;;;;;;;15.27;3.65;;;14.50;99.90;;;;;;5018450;28;20081;-75
2023/06/30 01:43:49;;;;;;;11.63;3.70;;;14.40;99.90;;;;;;5002255;28;20036;-75
2023/06/30 01:46:15;;;;;;;10.77;3.05;;;14.40;99.90;;;;;;5002158;28;20071;-75
2023/06/30 01:48:43;;;;;;;10.80;2.95;;;14.40;99.90;;;;;;4982556;28;20022;-75
2023/06/30 01:51:11;;;;;;;11.27;3.33;;;14.40;99.90;;;;;;4995354;28;20175;-75
2023/06/30 01:53:36;;;;;;;13.18;3.28;;;14.40;99.90;;;;;;5001771;28;20191;-75
2023/06/30 01:56:02;;;;;;;11.38;3.35;;;14.40;99.90;;;;;;4982644;28;20050;-75
2023/06/30 01:58:28;;;;;;;13.70;3.38;;;14.40;99.90;;;;;;4982357;28;20037;-75
2023/06/30 02:00:54;;;;;;;9.77;3.15;;;14.40;99.90;;;;;;5009677;28;20102;-75
2023/06/30 02:03:19;;;;;;;10.73;2.95;;;14.40;99.90;;;;;;4985657;28;20090;-75
2023/06/30 02:05:45;;;;;;;12.13;3.35;;;14.40;99.90;;;;;;5012026;28;20026;-75
2023/06/30 02:08:11;;;;;;;10.52;3.20;;;14.40;99.90;;;;;;5021466;28;20227;-75
2023/06/30 02:10:37;;;;;;;12.43;3.10;;;14.40;99.90;;;;;;5005189;28;20070;-75
2023/06/30 02:13:02;;;;;;;12.68;3.10;;;14.40;99.90;;;;;;5021342;28;20022;-75
2023/06/30 02:15:28;;;;;;;12.85;3.58;;;14.40;99.90;;;;;;5005317;28;20079;-75
2023/06/30 02:17:55;;;;;;;12.25;3.22;;;14.30;99.90;;;;;;5018589;28;20034;-75
2023/06/30 02:20:20;;;;;;;13.77;3.47;;;14.30;99.90;;;;;;5021575;28;20407;-75
2023/06/30 02:22:47;;;;;;;11.60;3.35;;;14.30;99.90;;;;;;5004947;28;20022;-75
2023/06/30 02:25:13;;;;;;;11.68;2.92;;;14.30;99.90;;;;;;5004981;28;20116;-75
2023/06/30 02:27:39;;;;;;;11.18;3.20;;;14.30;99.90;;;;;;5021174;28;20133;-75
2023/06/30 02:30:07;;;;;;;10.27;3.38;;;14.30;99.90;;;;;;5021261;28;20037;-76
2023/06/30 02:32:37;;;;;;;10.65;3.30;;;14.30;99.90;;;;;;5021134;28;20057;-75
2023/06/30 02:35:08;;;;;;;12.93;3.35;;;14.20;99.90;;;;;;4986109;28;20030;-75
2023/06/30 02:37:34;;;;;;;11.85;3.55;;;14.30;99.90;;;;;;4997342;28;20030;-75
2023/06/30 02:39:59;;;;;;;15.68;3.65;;;14.20;99.90;;;;;;5004843;28;20041;-75
2023/06/30 02:42:25;;;;;;;14.18;3.80;;;14.20;99.90;;;;;;5020816;28;20026;-75
2023/06/30 02:44:51;;;;;;;20.48;3.78;;;14.20;99.90;;;;;;5004809;28;20037;-75
2023/06/30 02:47:16;;;;;;;11.50;3.47;;;14.10;99.90;;;;;;5004542;28;20030;-75
2023/06/30 02:49:42;;;;;;;12.15;3.50;;;14.10;99.90;;;;;;5021056;28;20025;-75
2023/06/30 02:52:08;;;;;;;10.43;3.70;;;14.10;99.90;;;;;;5004249;28;20029;-75
2023/06/30 02:54:34;;;;;;;13.00;4.00;;;14.00;99.90;;;;;;5004727;28;20075;-75
2023/06/30 02:56:59;;;;;;;14.77;3.83;;;14.00;99.90;;;;;;4985104;28;20030;-75
2023/06/30 02:59:25;;;;;;;10.57;3.60;;;14.00;99.90;;;;;;5016025;28;20407;-75
2023/06/30 03:01:51;;;;;;;9.98;3.30;;;13.90;99.90;;;;;;5020543;28;20034;-75
2023/06/30 03:04:17;;;;;;;13.18;3.80;;;13.90;99.90;;;;;;5020617;28;20040;-75
2023/06/30 03:06:43;;;;;;;10.00;3.67;;;13.90;99.90;;;;;;5020616;28;20021;-75
2023/06/30 03:09:08;;;;;;;12.50;3.75;;;13.90;99.90;;;;;;5004515;28;20074;-76
2023/06/30 03:11:34;;;;;;;13.23;4.00;;;13.90;99.90;;;;;;5020268;28;20026;-75
2023/06/30 03:14:00;;;;;;;12.40;4.03;;;13.90;99.90;;;;;;5004260;28;20075;-75
2023/06/30 03:16:26;;;;;;;13.68;4.57;;;13.80;99.90;;;;;;5004142;28;20030;-75
2023/06/30 03:18:52;;;;;;;10.75;3.80;;;13.90;99.90;;;;;;5004199;28;20030;-75
2023/06/30 03:21:18;;;;;;;11.93;3.92;;;13.90;99.90;;;;;;5004143;28;20018;-76
2023/06/30 03:23:45;;;;;;;12.07;3.58;;;13.80;99.90;;;;;;5004193;28;20205;-76
2023/06/30 03:26:13;;;;;;;13.05;3.83;;;13.80;99.90;;;;;;5004067;28;20037;-76
2023/06/30 03:28:39;;;;;;;10.45;3.65;;;13.80;99.90;;;;;;5004280;28;20154;-76
2023/06/30 03:31:04;;;;;;;12.18;4.10;;;13.80;99.90;;;;;;5003971;28;20424;-76
2023/06/30 03:33:30;;;;;;;11.93;3.90;;;13.80;99.90;;;;;;5004124;28;20089;-76
2023/06/30 03:35:56;;;;;;;10.43;3.83;;;13.80;99.90;;;;;;5020375;28;20045;-76
2023/06/30 03:38:22;;;;;;;9.57;3.65;;;13.70;99.90;;;;;;5020089;28;20057;-75
2023/06/30 03:40:47;;;;;;;13.23;4.63;;;13.70;99.90;;;;;;5020285;28;20350;-76
2023/06/30 03:43:13;;;;;;;10.32;3.83;;;13.70;99.90;;;;;;4984194;28;20157;-76
2023/06/30 03:45:39;;;;;;;12.18;4.10;;;13.70;99.90;;;;;;4996732;28;20052;-75
2023/06/30 03:48:05;;;;;;;15.52;3.80;;;13.70;99.90;;;;;;5019929;28;20030;-75
2023/06/30 03:50:31;;;;;;;13.55;4.55;;;13.70;99.90;;;;;;5020415;28;20065;-75
2023/06/30 03:52:57;;;;;;;12.93;4.70;;;13.70;99.90;;;;;;5003549;28;20059;-76
2023/06/30 03:55:22;;;;;;;11.32;4.30;;;13.60;99.90;;;;;;4984213;28;20188;-76
2023/06/30 03:57:48;;;;;;;12.25;4.50;;;13.60;99.90;;;;;;5016673;28;20093;-76
2023/06/30 04:00:14;;;;;;;12.88;4.72;;;13.60;99.90;;;;;;5003605;28;20026;-76
2023/06/30 04:02:40;;;;;;;13.15;4.50;;;13.60;99.90;;;;;;5088862;28;20093;-76
2023/06/30 04:05:06;;;;;;;12.63;4.28;;;13.60;99.90;;;;;;5020162;28;20125;-76
2023/06/30 04:07:32;;;;;;;10.75;4.20;;;13.60;99.90;;;;;;5003332;28;20168;-76
2023/06/30 04:09:58;;;;;;;13.95;3.88;;;13.70;99.90;;;;;;5019861;28;20097;-75
2023/06/30 04:12:23;;;;;;;10.60;4.07;;;13.60;99.90;;;;;;5019446;28;20022;-76
2023/06/30 04:14:49;;;;;;;13.98;4.22;;;13.70;99.90;;;;;;5019857;28;20343;-75
2023/06/30 04:17:15;;;;;;;13.38;4.32;;;13.70;99.90;;;;;;5003300;28;20086;-75
2023/06/30 04:19:40;;;;;;;11.60;4.15;;;13.80;99.90;;;;;;5007561;28;20025;-76
2023/06/30 04:22:06;;;;;;;13.85;4.57;;;13.80;99.90;;;;;;5019294;28;20097;-76
2023/06/30 04:24:32;;;;;;;11.57;4.25;;;12.60;99.90;;;;;;5018612;28;20034;-76
2023/06/30 04:26:57;;;;;;;11.45;4.20;;;14.00;99.90;;;;;;5002901;28;20038;-76
2023/06/30 04:29:23;;;;;;;12.45;4.15;;;14.00;99.90;;;;;;5003166;28;20093;-76
2023/06/30 04:31:50;;;;;;;13.10;4.10;;;14.00;99.90;;;;;;5003019;28;20289;-76
2023/06/30 04:34:16;;;;;;;9.93;4.00;;;14.10;99.90;;;;;;5003223;28;20033;-76
2023/06/30 04:36:41;;;;;;;12.23;4.07;;;14.10;99.90;;;;;;5002759;28;20032;-76
2023/06/30 04:39:07;;;;;;;11.77;3.70;;;14.20;99.90;;;;;;5002943;28;20255;-75
2023/06/30 04:41:33;;;;;;;11.00;4.05;;;14.20;99.90;;;;;;5002876;28;20041;-75
2023/06/30 04:43:59;;;;;;;12.25;4.03;;;14.30;99.90;;;;;;5003001;28;20299;-76
2023/06/30 04:46:26;;;;;;;11.75;4.03;;;14.30;99.90;;;;;;5019387;28;20033;-75
2023/06/30 04:48:52;;;;;;;14.55;4.70;;;14.40;99.90;;;;;;5019167;28;20085;-75
2023/06/30 04:51:19;;;;;;;12.73;4.05;;;14.40;99.90;;;;;;5002604;28;20274;-76
2023/06/30 04:53:45;;;;;;;11.15;3.67;;;14.50;99.90;;;;;;5002817;28;20028;-76
2023/06/30 04:56:10;;;;;;;10.50;3.70;;;14.50;99.90;;;;;;5002601;28;20029;-76
2023/06/30 04:58:36;;;;;;;14.70;4.25;;;14.60;99.90;;;;;;5018849;28;20274;-76
2023/06/30 05:01:04;;;;;;;13.30;3.90;;;14.70;99.90;;;;;;5019002;28;20032;-75
2023/06/30 05:03:30;;;;;;;12.35;3.67;;;14.70;99.90;;;;;;5018950;28;20063;-75
2023/06/30 05:05:57;;;;;;;12.77;4.10;;;14.80;99.90;;;;;;5002735;28;20287;-75
2023/06/30 05:08:24;;;;;;;13.07;4.20;;;14.90;99.90;;;;;;5018948;28;20026;-75
2023/06/30 05:10:49;;;;;;;12.68;3.65;;;14.90;99.90;;;;;;5018929;28;20037;-75
2023/06/30 05:13:15;;;;;;;12.32;3.67;;;15.00;99.90;;;;;;5002447;28;20037;-75
2023/06/30 05:15:41;;;;;;;11.50;3.58;;;15.10;99.90;;;;;;5018781;28;20024;-75
2023/06/30 05:18:06;;;;;;;11.45;3.80;;;15.10;99.90;;;;;;5018330;28;20052;-75
2023/06/30 05:20:33;;;;;;;11.73;3.97;;;15.20;99.90;;;;;;4987626;28;20333;-75
2023/06/30 05:22:59;;;;;;;12.88;3.95;;;15.30;99.90;;;;;;4982788;28;20019;-75
2023/06/30 05:25:25;;;;;;;11.43;3.58;;;15.30;99.90;;;;;;4997088;28;20155;-75
2023/06/30 05:27:51;;;;;;;12.43;3.60;;;15.40;99.90;;;;;;5002188;28;20205;-76
2023/06/30 05:30:18;;;;;;;8.93;3.35;;;15.50;99.90;;;;;;5018567;28;20097;-76
2023/06/30 05:32:43;;;;;;;10.30;2.95;;;15.60;99.90;;;;;;5002043;28;20256;-75
2023/06/30 05:35:10;;;;;;;11.75;3.33;;;15.70;99.90;;;;;;5002905;28;20057;-75
2023/06/30 05:37:36;;;;;;;10.68;3.50;;;15.80;99.90;;;;;;5021875;28;20034;-75
2023/06/30 05:40:02;;;;;;;11.20;3.05;;;15.90;99.90;;;;;;5005814;28;20054;-75
2023/06/30 05:42:28;;;;;;;10.02;3.42;;;16.00;99.90;;;;;;5005588;28;20022;-75
2023/06/30 05:44:54;;;;;;;15.32;3.72;;;16.00;99.90;;;;;;5005732;28;20088;-75
2023/06/30 05:47:19;;;;;;;12.45;3.33;;;16.10;99.90;;;;;;5005408;28;20018;-75
2023/06/30 05:49:45;;;;;;;10.68;3.13;;;16.20;99.90;;;;;;5005738;28;20026;-75
2023/06/30 05:52:11;;;;;;;13.57;2.85;;;16.30;99.90;;;;;;5022029;28;20022;-75
2023/06/30 05:54:36;;;;;;;10.00;2.90;;;16.40;99.90;;;;;;4991808;28;20232;-75
2023/06/30 05:57:02;;;;;;;8.30;2.67;;;16.50;99.90;;;;;;5017247;28;20071;-76
2023/06/30 05:59:30;;;;;;;11.02;2.80;;;16.60;99.90;;;;;;5005724;28;20042;-75
2023/06/30 06:01:56;;;;;;;9.93;2.67;;;16.70;99.90;;;;;;5021555;28;20109;-75
2023/06/30 06:04:22;;;;;;;8.65;2.92;;;16.80;99.90;;;;;;5005638;28;20034;-75
2023/06/30 06:06:48;;;;;;;8.27;2.22;;;16.90;99.90;;;;;;5005071;28;20071;-75
2023/06/30 06:09:13;;;;;;;9.90;2.63;;;17.00;99.90;;;;;;4985934;28;20029;-75
2023/06/30 06:11:39;;;;;;;8.68;2.60;;;17.10;99.90;;;;;;4998028;28;20083;-75
2023/06/30 06:14:05;;;;;;;9.80;2.40;;;17.20;99.90;;;;;;5005380;28;20026;-75
2023/06/30 06:16:31;;;;;;;9.52;2.55;;;17.30;99.90;;;;;;4985762;28;20057;-75
2023/06/30 06:18:56;;;;;;;11.18;2.80;;;17.40;99.90;;;;;;4985661;28;20243;-75
2023/06/30 06:21:27;;;;;;;9.25;2.30;;;17.50;99.90;;;;;;5012806;28;20028;-75
2023/06/30 06:23:53;;;;;;;9.18;2.22;;;17.60;99.90;;;;;;5005154;28;20021;-75
2023/06/30 06:26:19;;;;;;;10.52;2.30;;;17.60;99.90;;;;;;5004923;28;20026;-76
2023/06/30 06:28:45;;;;;;;9.45;2.15;;;17.60;99.90;;;;;;5021420;28;20056;-76
2023/06/30 06:31:11;;;;;;;8.60;2.38;;;17.60;99.90;;;;;;5004950;28;20044;-75
2023/06/30 06:33:36;;;;;;;10.25;2.38;;;17.60;99.90;;;;;;5004863;28;20053;-75
2023/06/30 06:36:02;;;;;;;8.35;2.33;;;17.60;99.90;;;;;;5021335;28;20045;-75
2023/06/30 06:38:28;;;;;;;8.70;2.17;;;17.60;99.90;;;;;;5004865;28;20116;-75
2023/06/30 06:40:54;;;;;;;11.00;2.80;;;17.70;99.90;;;;;;5021235;28;20089;-75
2023/06/30 06:43:24;;;;;;;8.60;2.08;;;17.80;99.90;;;;;;5020915;28;20030;-75
2023/06/30 06:45:49;;;;;;;8.43;2.00;;;17.90;99.90;;;;;;5005506;28;20280;-75
2023/06/30 06:48:21;;;;;;;9.35;1.98;;;18.00;99.90;;;;;;5020049;28;20025;-75
2023/06/30 06:50:52;;;;;;;9.83;2.40;;;18.00;99.90;;;;;;5021116;28;20032;-75
2023/06/30 06:53:30;;;;;;;8.43;2.70;;;18.00;99.90;;;;;;5020800;28;20022;-75
2023/06/30 06:55:56;;;;;;;9.93;2.42;;;18.10;99.90;;;;;;5004720;28;20093;-75
2023/06/30 06:58:24;;;;;;;9.43;2.05;;;18.00;99.90;;;;;;5004483;28;20030;-75
2023/06/30 07:00:51;;;;;;;10.93;2.20;;;18.00;99.90;;;;;;5021109;28;20036;-75
2023/06/30 07:03:17;;;;;;;9.38;2.58;;;18.20;99.90;;;;;;5020726;28;20070;-75
2023/06/30 07:05:44;;;;;;;8.45;2.10;;;18.30;99.90;;;;;;5004671;28;20347;-74
2023/06/30 07:08:11;;;;;;;8.80;2.08;;;18.40;99.90;;;;;;5020954;28;20267;-74
2023/06/30 07:10:37;;;;;;;9.63;2.10;;;18.40;99.90;;;;;;5004634;28;20093;-75
2023/06/30 07:13:03;;;;;;;12.10;2.13;;;18.40;99.90;;;;;;5020580;28;20029;-75
2023/06/30 07:15:30;;;;;;;6.47;1.90;;;18.30;99.90;;;;;;5004473;28;20102;-75
2023/06/30 07:17:58;;;;;;;7.90;2.10;;;18.40;99.90;;;;;;5000781;28;20027;-74
2023/06/30 07:20:25;;;;;;;6.40;1.65;;;18.40;99.90;;;;;;4987093;28;20224;-74
2023/06/30 07:22:53;;;;;;;8.75;1.75;;;18.40;99.90;;;;;;5020518;28;20045;-75
2023/06/30 07:25:19;;;;;;;8.02;1.95;;;18.40;99.90;;;;;;5020523;28;20075;-74
2023/06/30 07:27:53;;;;;;;7.50;1.90;;;18.40;99.90;;;;;;5020138;28;20041;-75
2023/06/30 07:30:20;;;;;;;6.50;1.98;;;18.40;99.90;;;;;;5020481;28;20101;-75
2023/06/30 07:32:46;;;;;;;7.50;1.90;;;18.50;99.90;;;;;;4984815;28;20090;-75
2023/06/30 07:35:13;;;;;;;6.45;1.98;;;18.60;99.90;;;;;;5016950;28;20183;-75
2023/06/30 07:37:38;;;;;;;9.48;1.90;;;18.50;99.90;;;;;;5020158;28;20064;-74
2023/06/30 07:40:06;;;;;;;9.07;2.35;;;18.30;99.90;;;;;;5020100;28;20238;-75
2023/06/30 07:42:32;;;;;;;6.20;1.75;;;18.40;99.90;;;;;;5020132;28;20036;-75
2023/06/30 07:44:57;;;;;;;7.80;2.38;;;18.60;99.90;;;;;;5004257;28;20260;-75
2023/06/30 07:47:23;;;;;;;9.93;1.85;;;18.80;99.90;;;;;;5003905;28;20221;-74
2023/06/30 07:49:49;;;;;;;5.78;1.50;;;18.90;99.90;;;;;;5004356;28;20084;-74
2023/06/30 07:52:14;;;;;;;12.13;1.85;;;18.90;99.90;;;;;;4984136;28;20023;-74
2023/06/30 07:54:42;;;;;;;10.60;2.20;;;18.70;99.90;;;;;;5013618;28;20175;-75
2023/06/30 07:57:08;;;;;;;7.38;1.70;;;18.80;99.90;;;;;;5006662;28;20228;-75
2023/06/30 07:59:33;;;;;;;7.28;1.85;;;18.90;99.90;;;;;;5018844;28;20255;-75
2023/06/30 08:01:59;;;;;;;8.82;2.30;;;19.00;99.90;;;;;;5019743;28;20187;-74
2023/06/30 08:04:25;;;;;;;6.82;1.60;;;19.10;99.90;;;;;;5019837;28;20045;-74
2023/06/30 08:06:51;;;;;;;5.82;1.50;;;19.30;99.90;;;;;;5019491;28;20025;-74
2023/06/30 08:09:17;;;;;;;7.75;2.00;;;19.40;99.90;;;;;;4984123;28;20027;-74
2023/06/30 08:11:42;;;;;;;7.43;1.70;;;19.40;99.90;;;;;;5017264;28;20025;-74
2023/06/30 08:14:08;;;;;;;7.97;1.90;;;19.50;99.90;;;;;;5003404;28;20074;-75
2023/06/30 08:16:34;;;;;;;5.40;1.58;;;;;;;;;;5003168;28;20030;-75
2023/06/30 08:19:00;;;;;;;7.65;2.00;;;19.60;99.90;;;;;;5016444;28;20029;-75
2023/06/30 08:21:25;;;;;;;8.07;1.77;;;19.60;99.90;;;;;;5019359;28;20041;-75
2023/06/30 08:23:51;;;;;;;8.05;1.80;;;19.40;99.90;;;;;;5003622;28;20145;-75
2023/06/30 08:26:17;;;;;;;8.13;2.00;;;19.20;99.90;;;;;;5019686;28;20201;-75
2023/06/30 08:28:42;;;;;;;6.20;1.63;;;19.10;99.90;;;;;;5002935;28;20237;-75
2023/06/30 08:31:08;;;;;;;4.65;1.50;;;19.00;99.90;;;;;;5019610;28;20048;-75
2023/06/30 08:33:34;;;;;;;8.48;1.77;;;18.80;99.90;;;;;;5019420;28;20258;-75
2023/06/30 08:36:01;;;;;;;11.35;2.03;;;18.60;99.90;;;;;;5003072;28;20100;-75
2023/06/30 08:38:27;;;;;;;6.68;1.85;;;18.40;99.90;;;;;;5003028;28;20026;-74
2023/06/30 08:40:52;;;;;;;8.40;1.90;;;18.40;99.90;;;;;;5002963;28;20021;-74
2023/06/30 08:43:21;;;;;;;7.93;1.90;;;18.50;99.90;;;;;;5002726;28;20088;-74
2023/06/30 08:45:48;;;;;;;8.13;1.88;;;18.70;99.90;;;;;;5002900;28;20021;-75
2023/06/30 08:48:18;;;;;;;5.88;1.70;;;19.10;99.90;;;;;;5002603;28;20091;-74
2023/06/30 08:50:45;;;;;;;7.32;2.00;;;19.30;99.90;;;;;;5019328;28;20026;-74
2023/06/30 08:53:11;;;;;;;7.10;1.90;;;19.10;99.90;;;;;;5018793;28;20060;-75
2023/06/30 08:55:37;;;;;;;5.38;1.63;;;18.90;99.90;;;;;;5002719;28;20034;-75
2023/06/30 08:58:04;;;;;;;5.57;1.80;;;19.10;99.90;;;;;;5018898;28;20033;-75
2023/06/30 09:00:29;;;;;;;8.35;1.80;;;19.30;99.90;;;;;;5018968;28;20069;-75
2023/06/30 09:02:56;;;;;;;6.72;1.80;;;19.70;99.90;;;;;;5002524;28;20017;-75
2023/06/30 09:05:27;;;;;;;7.75;1.70;;;20.00;99.90;;;;;;5002780;28;20156;-74
2023/06/30 09:07:56;;;;;;;9.23;2.08;;;20.30;99.90;;;;;;5018729;28;20026;-75
2023/06/30 09:10:36;;;;;;;8.43;1.48;;;20.50;99.90;;;;;;5018662;28;20081;-75
2023/06/30 09:13:03;;;;;;;7.95;1.70;;;20.50;99.90;;;;;;5018669;28;20178;-75
2023/06/30 09:15:30;;;;;;;10.27;1.83;;;20.50;99.90;;;;;;5019009;28;20089;-75
2023/06/30 09:17:56;;;;;;;5.43;1.60;;;20.50;99.90;;;;;;5017823;28;20260;-75
2023/06/30 09:20:22;;;;;;;10.25;2.00;;;20.50;99.90;;;;;;4982996;28;20030;-75
2023/06/30 09:22:48;;;;;;;6.68;1.80;;;20.40;99.90;;;;;;5014058;28;20075;-75
2023/06/30 09:25:25;;;;;;;5.88;1.80;;;20.30;99.90;;;;;;5018593;28;20036;-75
2023/06/30 09:27:52;;;;;;;11.20;2.00;;;20.10;99.90;;;;;;5018347;28;20042;-75
2023/06/30 09:30:18;;;;;;;7.10;1.77;;;20.00;99.90;;;;;;5002811;28;20045;-75
2023/06/30 09:32:44;;;;;;;9.90;1.98;;;19.90;99.90;;;;;;5002198;28;20263;-75
2023/06/30 09:35:19;;;;;;;6.45;1.88;;;19.90;99.90;;;;;;5018830;28;20041;-75
2023/06/30 09:37:44;;;;;;;7.00;1.95;;;20.30;99.90;;;;;;5002090;28;20137;-74
2023/06/30 09:40:12;;;;;;;6.18;1.70;;;20.10;99.90;;;;;;5002318;28;20085;-74
2023/06/30 09:42:40;;;;;;;10.25;2.05;;;20.30;99.90;;;;;;5002333;28;20038;-75
2023/06/30 09:45:06;;;;;;;7.63;1.85;;;20.40;99.90;;;;;;5018529;28;20032;-75
2023/06/30 09:47:32;;;;;;;5.65;1.38;;;20.60;99.90;;;;;;5018279;28;20287;-75
2023/06/30 09:49:58;;;;;;;4.70;1.30;;;20.40;99.90;;;;;;5002365;28;20026;-75
2023/06/30 09:52:25;;;;;;;6.35;1.52;;;20.10;99.90;;;;;;5018167;28;20055;-75
2023/06/30 09:54:50;;;;;;;5.63;1.77;;;20.00;99.90;;;;;;5002158;28;20037;-75
2023/06/30 09:57:16;;;;;;;8.93;1.80;;;19.80;99.90;;;;;;5002038;28;20026;-75
2023/06/30 09:59:42;;;;;;;7.32;2.22;;;20.00;99.90;;;;;;5002010;28;20057;-74
2023/06/30 10:02:10;;;;;;;7.18;1.98;;;20.00;99.90;;;;;;5018263;28;20303;-75
2023/06/30 10:04:35;;;;;;;8.25;2.00;;;20.00;99.90;;;;;;5002093;28;20228;-75
2023/06/30 10:07:03;;;;;;;4.70;1.50;;;19.90;99.90;;;;;;5018205;28;20026;-75
2023/06/30 10:09:31;;;;;;;3.88;1.25;;;20.10;99.90;;;;;;5002331;28;20018;-75
2023/06/30 10:11:58;;;;;;;6.55;1.65;;;20.40;99.90;;;;;;4982623;28;20018;-75
2023/06/30 10:14:30;;;;;;;6.43;1.80;;;20.70;99.90;;;;;;5084507;28;20038;-75
2023/06/30 10:16:57;;;;;;;6.18;1.83;;;21.00;99.90;;;;;;5008953;28;20079;-75
2023/06/30 10:19:24;;;;;;;3.42;1.40;;;21.20;99.90;;;;;;5017842;28;20057;-75
2023/06/30 10:21:50;;;;;;;4.40;1.40;;;20.90;99.90;;;;;;5018204;28;20037;-75
2023/06/30 10:24:20;;;;;;;7.63;1.60;;;20.70;99.90;;;;;;5021585;28;20120;-75
2023/06/30 10:26:47;;;;;;;3.63;1.10;;;20.30;99.90;;;;;;5021357;28;20033;-75
2023/06/30 10:29:13;;;;;;;4.88;1.45;;;20.00;99.90;;;;;;5021525;28;20038;-75
2023/06/30 10:31:43;;;;;;;4.10;1.50;;;20.00;99.90;;;;;;5004967;28;20121;-75
2023/06/30 10:34:10;;;;;;;5.30;1.70;;;20.20;99.90;;;;;;5005171;28;20084;-75
2023/06/30 10:36:36;;;;;;;6.30;1.70;;;20.10;99.90;;;;;;5021143;28;20102;-75
2023/06/30 10:39:03;;;;;;;6.63;1.75;;;20.00;99.90;;;;;;5004924;28;20022;-75
2023/06/30 10:41:29;;;;;;;4.85;1.58;;;20.20;99.90;;;;;;5004882;28;20210;-75
2023/06/30 10:44:13;;;;;;;5.63;1.50;;;20.60;99.90;;;;;;5021148;28;20049;-74
2023/06/30 10:46:53;;;;;;;8.25;1.75;;;21.20;99.90;;;;;;5004703;28;20025;-75
2023/06/30 10:49:29;;;;;;;5.63;1.60;;;21.40;99.90;;;;;;5005107;28;20029;-75
2023/06/30 10:51:57;;;;;;;3.75;1.40;;;21.20;99.90;;;;;;5020847;28;20028;-75
2023/06/30 10:54:27;;;;;;;4.90;1.60;;;21.10;99.90;;;;;;5020996;28;20072;-75
2023/06/30 10:57:06;;;;;;;5.85;1.80;;;21.10;99.90;;;;;;5004504;28;20028;-75
2023/06/30 10:59:45;;;;;;;4.28;1.45;;;21.20;99.90;;;;;;5004568;28;20172;-75
2023/06/30 11:02:12;;;;;;;6.75;1.60;;;21.40;99.90;;;;;;5020846;28;20038;-75
2023/06/30 11:04:42;;;;;;;4.38;1.48;;;21.60;99.90;;;;;;5021104;28;20033;-75
2023/06/30 11:07:10;;;;;;;6.72;1.60;;;21.90;99.90;;;;;;5004369;28;20056;-75
2023/06/30 11:09:50;;;;;;;7.55;1.83;;;22.00;99.90;;;;;;5020753;28;20279;-75
2023/06/30 11:12:24;;;;;;;5.40;1.60;;;22.30;99.90;;;;;;5004103;28;20045;-75
2023/06/30 11:14:57;;;;;;;7.07;1.50;;;22.50;99.90;;;;;;5021154;28;20093;-75
2023/06/30 11:17:23;;;;;;;;;;;22.50;99.90;;;;;;5020942;28;20331;-75
2023/06/30 11:20:00;;;;;;;5.43;1.60;;;22.60;99.90;;;;;;5009938;28;19917;-75
2023/06/30 11:22:32;;;;;;;7.05;1.70;;;22.40;99.90;;;;;;5020337;28;20061;-75
2023/06/30 11:25:02;;;;;;;7.45;1.80;;;22.20;99.90;;;;;;5020479;28;20032;-75
2023/06/30 11:27:32;;;;;;;4.78;1.40;;;22.20;99.90;;;;;;5004596;28;20292;-75
2023/06/30 11:30:01;;;;;;;4.80;1.60;;;22.30;99.90;;;;;;5020572;28;20030;-75
2023/06/30 11:32:29;;;;;;;6.22;1.92;;;22.40;99.90;;;;;;5020399;28;20268;-75
2023/06/30 11:34:56;;;;;;;5.63;1.75;;;22.60;99.90;;;;;;5020152;28;20054;-75
2023/06/30 11:37:22;;;;;;;8.65;1.70;;;22.80;99.90;;;;;;5003914;28;20030;-75
2023/06/30 11:39:57;;;;;;;6.35;1.70;;;23.00;99.90;;;;;;5004534;28;20049;-75
2023/06/30 11:42:23;;;;;;;6.90;1.63;;;23.00;99.90;;;;;;5020117;28;20259;-75
2023/06/30 11:44:49;;;;;;;7.38;1.80;;;23.00;99.90;;;;;;5004050;28;20136;-75
2023/06/30 11:47:16;;;;;;;7.65;1.75;;;23.10;99.90;;;;;;4985504;28;20022;-76
2023/06/30 11:49:42;;;;;;;6.38;1.77;;;23.30;99.90;;;;;;5003886;28;20022;-75
2023/06/30 11:52:08;;;;;;;7.72;1.95;;;23.40;99.90;;;;;;5020048;28;20018;-75
2023/06/30 11:54:36;;;;;;;6.97;1.90;;;23.50;99.90;;;;;;5004085;28;20084;-75
2023/06/30 11:57:03;;;;;;;6.95;1.80;;;23.40;99.90;;;;;;5019867;28;20264;-75
2023/06/30 11:59:30;;;;;;;5.88;1.70;;;23.30;99.90;;;;;;5020396;28;20026;-75
2023/06/30 12:01:56;;;;;;;6.60;1.90;;;22.90;99.90;;;;;;5019846;28;20263;-75
2023/06/30 12:04:22;;;;;;;5.95;1.60;;;23.10;99.90;;;;;;5003627;28;20044;-75
2023/06/30 12:06:55;;;;;;;7.72;1.63;;;23.00;99.90;;;;;;5019886;28;20042;-75
2023/06/30 12:09:22;;;;;;;;;;;23.10;99.90;;;;;;5020289;28;20022;-75
2023/06/30 12:11:49;;;;;;;5.53;1.58;;;23.00;99.90;;;;;;5003437;28;19912;-74
2023/06/30 12:14:15;;;;;;;7.95;1.70;;;23.20;99.90;;;;;;5003276;28;20029;-74
2023/06/30 12:16:42;;;;;;;9.30;2.10;;;23.40;99.90;;;;;;5019413;28;20097;-75
2023/06/30 12:19:08;;;;;;;8.07;1.88;;;23.50;99.90;;;;;;5003092;28;20013;-75
2023/06/30 12:21:35;;;;;;;8.13;2.38;;;23.60;99.90;;;;;;5003240;28;20227;-75
2023/06/30 12:24:04;;;;;;;6.55;1.90;;;23.40;99.90;;;;;;5003367;28;20147;-75
2023/06/30 12:26:30;;;;;;;5.97;1.90;;;23.40;99.90;;;;;;5019379;28;20265;-75
2023/06/30 12:29:05;;;;;;;6.65;1.80;;;23.50;99.90;;;;;;5019247;28;20074;-76
2023/06/30 12:31:31;;;;;;;6.78;1.88;;;23.60;99.90;;;;;;5019419;28;20264;-75
2023/06/30 12:33:57;;;;;;;7.50;1.90;;;23.70;99.90;;;;;;5019340;28;20025;-75
2023/06/30 12:36:28;;;;;;;8.15;1.95;;;23.60;99.90;;;;;;5019247;28;20057;-75
2023/06/30 12:38:54;;;;;;;8.32;1.95;;;23.40;99.90;;;;;;5019192;28;20032;-74
2023/06/30 12:41:20;;;;;;;11.32;2.17;;;23.10;99.90;;;;;;5003326;28;20041;-75